sensor_id;sensor_type;location;lat;lon;timestamp;temperature;humidity
57664;DHT22;43493;53.098;6.064;2023-05-14T00:01:38;12.00;99.90
57664;DHT22;43493;53.098;6.064;2023-05-14T00:04:05;12.00;99.90
57664;DHT22;43493;53.098;6.064;2023-05-14T00:06:30;11.90;99.90
57664;DHT22;43493;53.098;6.064;2023-05-14T00:08:56;11.90;99.90
57664;DHT22;43493;53.098;6.064;2023-05-14T00:11:22;12.00;99.90
57664;DHT22;43493;53.098;6.064;2023-05-14T00:13:49;12.00;99.90
57664;DHT22;43493;53.098;6.064;2023-05-14T00:16:14;12.00;99.90
57664;DHT22;43493;53.098;6.064;2023-05-14T00:18:40;12.00;99.90
57664;DHT22;43493;53.098;6.064;2023-05-14T00:21:06;11.90;99.90
57664;DHT22;43493;53.098;6.064;2023-05-14T00:23:32;11.90;99.90
57664;DHT22;43493;53.098;6.064;2023-05-14T00:25:57;11.90;99.90
57664;DHT22;43493;53.098;6.064;2023-05-14T00:28:23;12.00;99.90
57664;DHT22;43493;53.098;6.064;2023-05-14T00:30:49;12.00;99.90
57664;DHT22;43493;53.098;6.064;2023-05-14T00:33:15;11.90;99.90
57664;DHT22;43493;53.098;6.064;2023-05-14T00:35:41;11.90;99.90
57664;DHT22;43493;53.098;6.064;2023-05-14T00:38:07;11.90;99.90
57664;DHT22;43493;53.098;6.064;2023-05-14T00:40:32;11.80;99.90
57664;DHT22;43493;53.098;6.064;2023-05-14T00:42:58;11.80;99.90
57664;DHT22;43493;53.098;6.064;2023-05-14T00:45:24;11.70;99.90
57664;DHT22;43493;53.098;6.064;2023-05-14T00:47:50;11.70;99.90
57664;DHT22;43493;53.098;6.064;2023-05-14T00:50:17;11.70;99.90
57664;DHT22;43493;53.098;6.064;2023-05-14T00:52:43;11.60;99.90
57664;DHT22;43493;53.098;6.064;2023-05-14T00:55:09;11.60;99.90
57664;DHT22;43493;53.098;6.064;2023-05-14T00:57:37;11.50;99.90
57664;DHT22;43493;53.098;6.064;2023-05-14T01:00:04;11.50;99.90
57664;DHT22;43493;53.098;6.064;2023-05-14T01:02:30;11.50;99.90
57664;DHT22;43493;53.098;6.064;2023-05-14T01:04:56;11.50;99.90
57664;DHT22;43493;53.098;6.064;2023-05-14T01:09:49;11.40;99.90
57664;DHT22;43493;53.098;6.064;2023-05-14T01:15:18;11.50;99.90
57664;DHT22;43493;53.098;6.064;2023-05-14T01:17:49;11.50;99.90
57664;DHT22;43493;53.098;6.064;2023-05-14T01:20:16;11.50;99.90
57664;DHT22;43493;53.098;6.064;2023-05-14T01:22:42;11.50;99.90
57664;DHT22;43493;53.098;6.064;2023-05-14T01:25:08;11.50;99.90
57664;DHT22;43493;53.098;6.064;2023-05-14T01:30:30;11.50;99.90
57664;DHT22;43493;53.098;6.064;2023-05-14T01:32:59;11.50;99.90
57664;DHT22;43493;53.098;6.064;2023-05-14T01:35:28;11.60;99.90
57664;DHT22;43493;53.098;6.064;2023-05-14T01:37:56;11.70;99.90
57664;DHT22;43493;53.098;6.064;2023-05-14T01:40:23;11.70;99.90
57664;DHT22;43493;53.098;6.064;2023-05-14T01:42:50;11.70;99.90
57664;DHT22;43493;53.098;6.064;2023-05-14T01:45:20;11.60;99.90
57664;DHT22;43493;53.098;6.064;2023-05-14T01:47:45;11.60;99.90
57664;DHT22;43493;53.098;6.064;2023-05-14T01:50:11;11.50;99.90
57664;DHT22;43493;53.098;6.064;2023-05-14T01:52:37;11.50;99.90
57664;DHT22;43493;53.098;6.064;2023-05-14T01:55:03;11.50;99.90
57664;DHT22;43493;53.098;6.064;2023-05-14T01:57:30;11.50;99.90
57664;DHT22;43493;53.098;6.064;2023-05-14T01:59:55;11.50;99.90
57664;DHT22;43493;53.098;6.064;2023-05-14T02:02:21;11.40;99.90
57664;DHT22;43493;53.098;6.064;2023-05-14T02:04:47;11.40;99.90
57664;DHT22;43493;53.098;6.064;2023-05-14T02:07:13;11.40;99.90
57664;DHT22;43493;53.098;6.064;2023-05-14T02:09:38;11.40;99.90
57664;DHT22;43493;53.098;6.064;2023-05-14T02:12:06;11.50;99.90
57664;DHT22;43493;53.098;6.064;2023-05-14T02:14:32;11.50;99.90
57664;DHT22;43493;53.098;6.064;2023-05-14T02:16:58;11.40;99.90
57664;DHT22;43493;53.098;6.064;2023-05-14T02:19:24;11.40;99.90
57664;DHT22;43493;53.098;6.064;2023-05-14T02:21:49;11.40;99.90
57664;DHT22;43493;53.098;6.064;2023-05-14T02:24:15;11.40;99.90
57664;DHT22;43493;53.098;6.064;2023-05-14T02:26:41;11.30;99.90
57664;DHT22;43493;53.098;6.064;2023-05-14T02:29:07;11.40;99.90
57664;DHT22;43493;53.098;6.064;2023-05-14T02:31:33;11.30;99.90
57664;DHT22;43493;53.098;6.064;2023-05-14T02:34:00;11.20;99.90
57664;DHT22;43493;53.098;6.064;2023-05-14T02:36:26;11.20;99.90
57664;DHT22;43493;53.098;6.064;2023-05-14T02:38:52;11.20;99.90
57664;DHT22;43493;53.098;6.064;2023-05-14T02:41:18;11.20;99.90
57664;DHT22;43493;53.098;6.064;2023-05-14T02:43:43;11.20;99.90
57664;DHT22;43493;53.098;6.064;2023-05-14T02:46:09;11.20;99.90
57664;DHT22;43493;53.098;6.064;2023-05-14T02:48:35;11.20;99.90
57664;DHT22;43493;53.098;6.064;2023-05-14T02:51:01;11.20;99.90
57664;DHT22;43493;53.098;6.064;2023-05-14T02:53:27;11.30;99.90
57664;DHT22;43493;53.098;6.064;2023-05-14T02:55:52;11.30;99.90
57664;DHT22;43493;53.098;6.064;2023-05-14T02:58:18;11.20;99.90
57664;DHT22;43493;53.098;6.064;2023-05-14T03:00:44;11.30;99.90
57664;DHT22;43493;53.098;6.064;2023-05-14T03:03:10;11.30;99.90
57664;DHT22;43493;53.098;6.064;2023-05-14T03:05:35;11.20;99.90
57664;DHT22;43493;53.098;6.064;2023-05-14T03:08:01;11.20;99.90
57664;DHT22;43493;53.098;6.064;2023-05-14T03:10:28;11.20;99.90
57664;DHT22;43493;53.098;6.064;2023-05-14T03:12:54;11.30;99.90
57664;DHT22;43493;53.098;6.064;2023-05-14T03:15:19;11.30;99.90
57664;DHT22;43493;53.098;6.064;2023-05-14T03:17:45;11.30;99.90
57664;DHT22;43493;53.098;6.064;2023-05-14T03:20:11;11.40;99.90
57664;DHT22;43493;53.098;6.064;2023-05-14T03:22:37;11.40;99.90
57664;DHT22;43493;53.098;6.064;2023-05-14T03:25:03;11.40;99.90
57664;DHT22;43493;53.098;6.064;2023-05-14T03:27:29;11.40;99.90
57664;DHT22;43493;53.098;6.064;2023-05-14T03:29:55;11.40;99.90
57664;DHT22;43493;53.098;6.064;2023-05-14T03:32:20;11.30;99.90
57664;DHT22;43493;53.098;6.064;2023-05-14T03:34:46;11.30;99.90
57664;DHT22;43493;53.098;6.064;2023-05-14T03:37:12;11.30;99.90
57664;DHT22;43493;53.098;6.064;2023-05-14T03:39:37;11.30;99.90
57664;DHT22;43493;53.098;6.064;2023-05-14T03:42:03;11.30;99.90
57664;DHT22;43493;53.098;6.064;2023-05-14T03:44:29;11.30;99.90
57664;DHT22;43493;53.098;6.064;2023-05-14T03:46:55;11.30;99.90
57664;DHT22;43493;53.098;6.064;2023-05-14T03:49:20;11.40;99.90
57664;DHT22;43493;53.098;6.064;2023-05-14T03:51:46;11.40;99.90
57664;DHT22;43493;53.098;6.064;2023-05-14T03:54:12;11.30;99.90
57664;DHT22;43493;53.098;6.064;2023-05-14T03:56:38;11.30;99.90
57664;DHT22;43493;53.098;6.064;2023-05-14T03:59:03;11.40;99.90
57664;DHT22;43493;53.098;6.064;2023-05-14T04:01:29;11.40;99.90
57664;DHT22;43493;53.098;6.064;2023-05-14T04:03:55;11.40;99.90
57664;DHT22;43493;53.098;6.064;2023-05-14T04:06:20;11.40;99.90
57664;DHT22;43493;53.098;6.064;2023-05-14T04:08:46;11.50;99.90
57664;DHT22;43493;53.098;6.064;2023-05-14T04:11:12;11.50;99.90
57664;DHT22;43493;53.098;6.064;2023-05-14T04:13:38;11.50;99.90
57664;DHT22;43493;53.098;6.064;2023-05-14T04:16:03;11.40;99.90
57664;DHT22;43493;53.098;6.064;2023-05-14T04:18:29;11.40;99.90
57664;DHT22;43493;53.098;6.064;2023-05-14T04:20:59;11.40;99.90
57664;DHT22;43493;53.098;6.064;2023-05-14T04:23:25;11.40;99.90
57664;DHT22;43493;53.098;6.064;2023-05-14T04:25:51;11.40;99.90
57664;DHT22;43493;53.098;6.064;2023-05-14T04:28:16;11.40;99.90
57664;DHT22;43493;53.098;6.064;2023-05-14T04:30:42;11.50;99.90
57664;DHT22;43493;53.098;6.064;2023-05-14T04:33:08;11.60;99.90
57664;DHT22;43493;53.098;6.064;2023-05-14T04:35:33;11.60;99.90
57664;DHT22;43493;53.098;6.064;2023-05-14T04:37:59;11.60;99.90
57664;DHT22;43493;53.098;6.064;2023-05-14T04:40:25;11.70;99.90
57664;DHT22;43493;53.098;6.064;2023-05-14T04:42:50;11.70;99.90
57664;DHT22;43493;53.098;6.064;2023-05-14T04:45:16;11.70;99.90
57664;DHT22;43493;53.098;6.064;2023-05-14T04:47:42;11.80;99.90
57664;DHT22;43493;53.098;6.064;2023-05-14T04:50:09;11.80;99.90
57664;DHT22;43493;53.098;6.064;2023-05-14T04:52:35;11.90;99.90
57664;DHT22;43493;53.098;6.064;2023-05-14T04:55:01;12.00;99.90
57664;DHT22;43493;53.098;6.064;2023-05-14T04:57:26;12.00;99.90
57664;DHT22;43493;53.098;6.064;2023-05-14T04:59:52;12.00;99.90
57664;DHT22;43493;53.098;6.064;2023-05-14T05:02:18;12.10;99.90
57664;DHT22;43493;53.098;6.064;2023-05-14T05:04:44;12.10;99.90
57664;DHT22;43493;53.098;6.064;2023-05-14T05:07:09;12.20;99.90
57664;DHT22;43493;53.098;6.064;2023-05-14T05:09:35;12.30;99.90
57664;DHT22;43493;53.098;6.064;2023-05-14T05:12:01;12.30;99.90
57664;DHT22;43493;53.098;6.064;2023-05-14T05:14:26;12.40;99.90
57664;DHT22;43493;53.098;6.064;2023-05-14T05:16:52;12.40;99.90
57664;DHT22;43493;53.098;6.064;2023-05-14T05:19:18;12.50;99.90
57664;DHT22;43493;53.098;6.064;2023-05-14T05:21:43;12.50;99.90
57664;DHT22;43493;53.098;6.064;2023-05-14T05:24:09;12.50;99.90
57664;DHT22;43493;53.098;6.064;2023-05-14T05:26:35;12.60;99.90
57664;DHT22;43493;53.098;6.064;2023-05-14T05:29:02;12.70;99.90
57664;DHT22;43493;53.098;6.064;2023-05-14T05:31:29;12.80;99.90
57664;DHT22;43493;53.098;6.064;2023-05-14T05:33:55;12.90;99.90
57664;DHT22;43493;53.098;6.064;2023-05-14T05:36:21;13.00;99.90
57664;DHT22;43493;53.098;6.064;2023-05-14T05:38:47;13.10;99.90
57664;DHT22;43493;53.098;6.064;2023-05-14T05:41:13;13.20;99.90
57664;DHT22;43493;53.098;6.064;2023-05-14T05:43:38;13.40;99.90
57664;DHT22;43493;53.098;6.064;2023-05-14T05:46:06;13.60;99.90
57664;DHT22;43493;53.098;6.064;2023-05-14T05:48:31;13.90;99.90
57664;DHT22;43493;53.098;6.064;2023-05-14T05:50:57;14.20;99.90
57664;DHT22;43493;53.098;6.064;2023-05-14T05:53:23;14.20;99.90
57664;DHT22;43493;53.098;6.064;2023-05-14T05:55:49;14.40;99.90
57664;DHT22;43493;53.098;6.064;2023-05-14T05:58:17;14.40;99.90
57664;DHT22;43493;53.098;6.064;2023-05-14T06:00:42;14.60;99.90
57664;DHT22;43493;53.098;6.064;2023-05-14T06:03:09;14.60;99.90
57664;DHT22;43493;53.098;6.064;2023-05-14T06:05:35;14.70;99.90
57664;DHT22;43493;53.098;6.064;2023-05-14T06:08:01;14.60;99.90
57664;DHT22;43493;53.098;6.064;2023-05-14T06:10:27;14.70;99.90
57664;DHT22;43493;53.098;6.064;2023-05-14T06:12:53;14.70;99.90
57664;DHT22;43493;53.098;6.064;2023-05-14T06:15:19;14.70;99.90
57664;DHT22;43493;53.098;6.064;2023-05-14T06:17:45;14.60;99.90
57664;DHT22;43493;53.098;6.064;2023-05-14T06:20:11;14.50;99.90
57664;DHT22;43493;53.098;6.064;2023-05-14T06:22:37;14.50;99.90
57664;DHT22;43493;53.098;6.064;2023-05-14T06:25:03;14.40;99.90
57664;DHT22;43493;53.098;6.064;2023-05-14T06:27:29;14.40;99.90
57664;DHT22;43493;53.098;6.064;2023-05-14T06:29:54;14.40;99.90
57664;DHT22;43493;53.098;6.064;2023-05-14T06:32:20;14.40;99.90
57664;DHT22;43493;53.098;6.064;2023-05-14T06:34:46;14.50;99.90
57664;DHT22;43493;53.098;6.064;2023-05-14T06:37:12;14.50;99.90
57664;DHT22;43493;53.098;6.064;2023-05-14T06:39:38;14.40;99.90
57664;DHT22;43493;53.098;6.064;2023-05-14T06:42:04;14.60;99.90
57664;DHT22;43493;53.098;6.064;2023-05-14T06:44:30;14.70;99.90
57664;DHT22;43493;53.098;6.064;2023-05-14T06:46:56;14.80;99.90
57664;DHT22;43493;53.098;6.064;2023-05-14T06:49:22;15.20;99.90
57664;DHT22;43493;53.098;6.064;2023-05-14T06:51:47;15.80;99.90
57664;DHT22;43493;53.098;6.064;2023-05-14T06:54:13;16.10;99.90
57664;DHT22;43493;53.098;6.064;2023-05-14T06:56:39;16.60;99.90
57664;DHT22;43493;53.098;6.064;2023-05-14T06:59:05;16.90;99.90
57664;DHT22;43493;53.098;6.064;2023-05-14T07:01:30;17.30;99.90
57664;DHT22;43493;53.098;6.064;2023-05-14T07:03:56;17.80;99.90
57664;DHT22;43493;53.098;6.064;2023-05-14T07:06:22;17.90;99.90
57664;DHT22;43493;53.098;6.064;2023-05-14T07:08:48;17.90;99.90
57664;DHT22;43493;53.098;6.064;2023-05-14T07:11:14;18.20;99.90
57664;DHT22;43493;53.098;6.064;2023-05-14T07:13:40;18.20;99.90
57664;DHT22;43493;53.098;6.064;2023-05-14T07:16:07;18.10;99.90
57664;DHT22;43493;53.098;6.064;2023-05-14T07:18:36;17.90;99.90
57664;DHT22;43493;53.098;6.064;2023-05-14T07:21:02;17.80;99.90
57664;DHT22;43493;53.098;6.064;2023-05-14T07:23:31;17.70;99.90
57664;DHT22;43493;53.098;6.064;2023-05-14T07:25:58;17.70;99.90
57664;DHT22;43493;53.098;6.064;2023-05-14T07:28:23;17.60;99.90
57664;DHT22;43493;53.098;6.064;2023-05-14T07:30:49;17.80;99.90
57664;DHT22;43493;53.098;6.064;2023-05-14T07:33:15;18.50;99.90
57664;DHT22;43493;53.098;6.064;2023-05-14T07:35:41;19.10;99.90
57664;DHT22;43493;53.098;6.064;2023-05-14T07:38:06;19.70;99.90
57664;DHT22;43493;53.098;6.064;2023-05-14T07:40:32;20.30;99.90
57664;DHT22;43493;53.098;6.064;2023-05-14T07:42:58;20.80;99.90
57664;DHT22;43493;53.098;6.064;2023-05-14T07:45:24;20.80;99.90
57664;DHT22;43493;53.098;6.064;2023-05-14T07:47:49;21.00;99.90
57664;DHT22;43493;53.098;6.064;2023-05-14T07:50:19;21.00;99.90
57664;DHT22;43493;53.098;6.064;2023-05-14T07:52:44;21.20;99.90
57664;DHT22;43493;53.098;6.064;2023-05-14T07:55:11;20.90;99.90
57664;DHT22;43493;53.098;6.064;2023-05-14T07:57:37;21.00;99.90
57664;DHT22;43493;53.098;6.064;2023-05-14T08:00:04;20.90;99.90
57664;DHT22;43493;53.098;6.064;2023-05-14T08:02:33;20.90;99.90
57664;DHT22;43493;53.098;6.064;2023-05-14T08:04:58;20.70;99.90
57664;DHT22;43493;53.098;6.064;2023-05-14T08:07:24;20.80;99.90
57664;DHT22;43493;53.098;6.064;2023-05-14T08:09:52;20.70;99.90
57664;DHT22;43493;53.098;6.064;2023-05-14T08:12:18;20.70;99.90
57664;DHT22;43493;53.098;6.064;2023-05-14T08:14:43;20.50;99.90
57664;DHT22;43493;53.098;6.064;2023-05-14T08:17:09;20.20;99.90
57664;DHT22;43493;53.098;6.064;2023-05-14T08:19:35;20.00;99.90
57664;DHT22;43493;53.098;6.064;2023-05-14T08:22:00;20.00;99.90
57664;DHT22;43493;53.098;6.064;2023-05-14T08:24:26;20.20;99.90
57664;DHT22;43493;53.098;6.064;2023-05-14T08:26:52;20.40;99.90
57664;DHT22;43493;53.098;6.064;2023-05-14T08:29:18;20.50;99.90
57664;DHT22;43493;53.098;6.064;2023-05-14T08:31:44;20.30;99.90
57664;DHT22;43493;53.098;6.064;2023-05-14T08:34:09;20.00;99.90
57664;DHT22;43493;53.098;6.064;2023-05-14T08:36:36;19.70;99.90
57664;DHT22;43493;53.098;6.064;2023-05-14T08:39:02;19.50;99.90
57664;DHT22;43493;53.098;6.064;2023-05-14T08:41:28;19.40;99.90
57664;DHT22;43493;53.098;6.064;2023-05-14T08:44:11;19.20;99.90
57664;DHT22;43493;53.098;6.064;2023-05-14T08:46:38;19.10;99.90
57664;DHT22;43493;53.098;6.064;2023-05-14T08:51:50;18.90;99.90
57664;DHT22;43493;53.098;6.064;2023-05-14T08:54:17;18.90;99.90
57664;DHT22;43493;53.098;6.064;2023-05-14T08:56:44;18.80;99.90
57664;DHT22;43493;53.098;6.064;2023-05-14T08:59:12;18.90;99.90
57664;DHT22;43493;53.098;6.064;2023-05-14T09:01:40;18.90;99.90
57664;DHT22;43493;53.098;6.064;2023-05-14T09:04:08;18.80;99.90
57664;DHT22;43493;53.098;6.064;2023-05-14T09:06:35;18.80;99.90
57664;DHT22;43493;53.098;6.064;2023-05-14T09:09:04;18.80;99.90
57664;DHT22;43493;53.098;6.064;2023-05-14T09:11:31;18.90;99.90
57664;DHT22;43493;53.098;6.064;2023-05-14T09:13:56;18.90;99.90
57664;DHT22;43493;53.098;6.064;2023-05-14T09:16:24;18.80;99.90
57664;DHT22;43493;53.098;6.064;2023-05-14T09:18:50;18.80;99.90
57664;DHT22;43493;53.098;6.064;2023-05-14T09:21:17;18.70;99.90
57664;DHT22;43493;53.098;6.064;2023-05-14T09:23:43;18.70;99.90
57664;DHT22;43493;53.098;6.064;2023-05-14T09:26:09;18.80;99.90
57664;DHT22;43493;53.098;6.064;2023-05-14T09:28:39;18.80;99.90
57664;DHT22;43493;53.098;6.064;2023-05-14T09:31:07;18.90;99.90
57664;DHT22;43493;53.098;6.064;2023-05-14T09:33:33;18.90;99.90
57664;DHT22;43493;53.098;6.064;2023-05-14T09:36:00;18.80;99.90
57664;DHT22;43493;53.098;6.064;2023-05-14T09:38:32;18.70;99.90
57664;DHT22;43493;53.098;6.064;2023-05-14T09:40:59;18.70;99.90
57664;DHT22;43493;53.098;6.064;2023-05-14T09:43:25;18.70;99.90
57664;DHT22;43493;53.098;6.064;2023-05-14T09:45:54;18.60;99.90
57664;DHT22;43493;53.098;6.064;2023-05-14T09:48:20;18.50;99.90
57664;DHT22;43493;53.098;6.064;2023-05-14T09:50:46;18.40;99.90
57664;DHT22;43493;53.098;6.064;2023-05-14T09:53:13;18.30;99.90
57664;DHT22;43493;53.098;6.064;2023-05-14T09:55:39;18.30;99.90
57664;DHT22;43493;53.098;6.064;2023-05-14T09:58:05;18.20;99.90
57664;DHT22;43493;53.098;6.064;2023-05-14T10:00:32;18.20;99.90
57664;DHT22;43493;53.098;6.064;2023-05-14T10:02:58;18.30;99.90
57664;DHT22;43493;53.098;6.064;2023-05-14T10:05:27;18.30;99.90
57664;DHT22;43493;53.098;6.064;2023-05-14T10:07:56;18.50;99.90
57664;DHT22;43493;53.098;6.064;2023-05-14T10:10:25;18.50;99.90
57664;DHT22;43493;53.098;6.064;2023-05-14T10:13:08;18.60;99.90
57664;DHT22;43493;53.098;6.064;2023-05-14T10:15:39;18.60;99.90
57664;DHT22;43493;53.098;6.064;2023-05-14T10:18:11;18.60;99.90
57664;DHT22;43493;53.098;6.064;2023-05-14T10:20:39;18.70;99.90
57664;DHT22;43493;53.098;6.064;2023-05-14T10:23:06;18.70;99.90
57664;DHT22;43493;53.098;6.064;2023-05-14T10:25:33;18.70;99.90
57664;DHT22;43493;53.098;6.064;2023-05-14T10:28:00;18.80;99.90
57664;DHT22;43493;53.098;6.064;2023-05-14T10:30:26;18.80;99.90
57664;DHT22;43493;53.098;6.064;2023-05-14T10:33:08;18.80;99.90
57664;DHT22;43493;53.098;6.064;2023-05-14T10:38:27;18.90;99.90
57664;DHT22;43493;53.098;6.064;2023-05-14T10:40:58;19.00;99.90
57664;DHT22;43493;53.098;6.064;2023-05-14T10:43:26;19.10;99.90
57664;DHT22;43493;53.098;6.064;2023-05-14T10:45:53;19.00;99.90
57664;DHT22;43493;53.098;6.064;2023-05-14T10:48:19;19.00;99.90
57664;DHT22;43493;53.098;6.064;2023-05-14T10:50:47;19.00;99.90
57664;DHT22;43493;53.098;6.064;2023-05-14T10:53:14;19.00;99.90
57664;DHT22;43493;53.098;6.064;2023-05-14T10:55:41;19.00;99.90
57664;DHT22;43493;53.098;6.064;2023-05-14T10:58:09;19.10;99.90
57664;DHT22;43493;53.098;6.064;2023-05-14T11:00:36;19.20;99.90
57664;DHT22;43493;53.098;6.064;2023-05-14T11:03:05;19.30;99.90
57664;DHT22;43493;53.098;6.064;2023-05-14T11:05:32;19.30;99.90
57664;DHT22;43493;53.098;6.064;2023-05-14T11:08:03;19.30;99.90
57664;DHT22;43493;53.098;6.064;2023-05-14T11:10:30;19.30;99.90
57664;DHT22;43493;53.098;6.064;2023-05-14T11:12:56;19.30;99.90
57664;DHT22;43493;53.098;6.064;2023-05-14T11:15:25;19.30;99.90
57664;DHT22;43493;53.098;6.064;2023-05-14T11:17:51;19.30;99.90
57664;DHT22;43493;53.098;6.064;2023-05-14T11:20:18;19.30;99.90
57664;DHT22;43493;53.098;6.064;2023-05-14T11:22:46;19.30;99.90
57664;DHT22;43493;53.098;6.064;2023-05-14T11:25:13;19.30;99.90
57664;DHT22;43493;53.098;6.064;2023-05-14T11:27:40;19.30;99.90
57664;DHT22;43493;53.098;6.064;2023-05-14T11:30:17;19.30;99.90
57664;DHT22;43493;53.098;6.064;2023-05-14T11:32:44;19.30;99.90
57664;DHT22;43493;53.098;6.064;2023-05-14T11:35:11;19.40;99.90
57664;DHT22;43493;53.098;6.064;2023-05-14T11:37:37;19.50;99.90
57664;DHT22;43493;53.098;6.064;2023-05-14T11:40:07;19.50;99.90
57664;DHT22;43493;53.098;6.064;2023-05-14T11:42:35;19.50;99.90
57664;DHT22;43493;53.098;6.064;2023-05-14T11:45:01;19.50;99.90
57664;DHT22;43493;53.098;6.064;2023-05-14T11:47:28;19.50;99.90
57664;DHT22;43493;53.098;6.064;2023-05-14T11:49:54;19.50;99.90
57664;DHT22;43493;53.098;6.064;2023-05-14T11:52:20;19.50;99.90
57664;DHT22;43493;53.098;6.064;2023-05-14T11:54:46;19.60;99.90
57664;DHT22;43493;53.098;6.064;2023-05-14T11:57:21;19.60;99.90
57664;DHT22;43493;53.098;6.064;2023-05-14T11:59:48;19.80;99.90
57664;DHT22;43493;53.098;6.064;2023-05-14T12:02:16;19.80;99.90
57664;DHT22;43493;53.098;6.064;2023-05-14T12:04:43;19.90;99.90
57664;DHT22;43493;53.098;6.064;2023-05-14T12:07:10;19.90;99.90
57664;DHT22;43493;53.098;6.064;2023-05-14T12:09:41;20.10;99.90
57664;DHT22;43493;53.098;6.064;2023-05-14T12:12:09;20.30;99.90
57664;DHT22;43493;53.098;6.064;2023-05-14T12:14:37;20.40;99.90
57664;DHT22;43493;53.098;6.064;2023-05-14T12:17:13;20.50;99.90
57664;DHT22;43493;53.098;6.064;2023-05-14T12:19:40;20.60;99.90
57664;DHT22;43493;53.098;6.064;2023-05-14T12:22:07;20.70;99.90
57664;DHT22;43493;53.098;6.064;2023-05-14T12:24:33;20.70;99.90
57664;DHT22;43493;53.098;6.064;2023-05-14T12:27:00;20.80;99.90
57664;DHT22;43493;53.098;6.064;2023-05-14T12:29:26;21.00;99.90
57664;DHT22;43493;53.098;6.064;2023-05-14T12:31:52;21.00;99.90
57664;DHT22;43493;53.098;6.064;2023-05-14T12:34:18;21.00;99.90
57664;DHT22;43493;53.098;6.064;2023-05-14T12:36:44;21.00;99.90
57664;DHT22;43493;53.098;6.064;2023-05-14T12:39:10;21.00;99.90
57664;DHT22;43493;53.098;6.064;2023-05-14T12:41:36;21.00;99.90
57664;DHT22;43493;53.098;6.064;2023-05-14T12:44:03;21.10;99.90
57664;DHT22;43493;53.098;6.064;2023-05-14T12:46:29;21.00;99.70
57664;DHT22;43493;53.098;6.064;2023-05-14T12:48:55;21.00;99.90
57664;DHT22;43493;53.098;6.064;2023-05-14T12:51:22;21.00;99.90
57664;DHT22;43493;53.098;6.064;2023-05-14T12:53:48;21.00;99.50
57664;DHT22;43493;53.098;6.064;2023-05-14T12:56:14;21.00;99.40
57664;DHT22;43493;53.098;6.064;2023-05-14T12:58:40;21.10;99.00
57664;DHT22;43493;53.098;6.064;2023-05-14T13:01:06;21.10;98.60
57664;DHT22;43493;53.098;6.064;2023-05-14T13:03:32;21.20;98.50
57664;DHT22;43493;53.098;6.064;2023-05-14T13:05:58;21.20;97.20
57664;DHT22;43493;53.098;6.064;2023-05-14T13:08:25;21.30;97.80
57664;DHT22;43493;53.098;6.064;2023-05-14T13:10:54;21.30;98.40
57664;DHT22;43493;53.098;6.064;2023-05-14T13:13:21;21.30;96.00
57664;DHT22;43493;53.098;6.064;2023-05-14T13:15:46;21.40;96.60
57664;DHT22;43493;53.098;6.064;2023-05-14T13:18:13;21.30;96.10
57664;DHT22;43493;53.098;6.064;2023-05-14T13:20:39;21.40;95.80
57664;DHT22;43493;53.098;6.064;2023-05-14T13:23:05;21.40;96.00
57664;DHT22;43493;53.098;6.064;2023-05-14T13:25:30;21.50;96.00
57664;DHT22;43493;53.098;6.064;2023-05-14T13:27:56;21.40;95.40
57664;DHT22;43493;53.098;6.064;2023-05-14T13:30:22;21.40;95.20
57664;DHT22;43493;53.098;6.064;2023-05-14T13:32:48;21.40;95.60
57664;DHT22;43493;53.098;6.064;2023-05-14T13:35:13;21.40;96.40
57664;DHT22;43493;53.098;6.064;2023-05-14T13:37:39;21.40;96.40
57664;DHT22;43493;53.098;6.064;2023-05-14T13:40:05;21.40;93.50
57664;DHT22;43493;53.098;6.064;2023-05-14T13:42:35;21.40;92.00
57664;DHT22;43493;53.098;6.064;2023-05-14T13:45:01;21.50;92.50
57664;DHT22;43493;53.098;6.064;2023-05-14T13:47:27;21.50;92.20
57664;DHT22;43493;53.098;6.064;2023-05-14T13:49:53;21.40;92.20
57664;DHT22;43493;53.098;6.064;2023-05-14T13:52:19;21.50;93.30
57664;DHT22;43493;53.098;6.064;2023-05-14T13:54:45;21.50;91.70
57664;DHT22;43493;53.098;6.064;2023-05-14T13:57:11;21.40;91.70
57664;DHT22;43493;53.098;6.064;2023-05-14T13:59:37;21.50;94.10
57664;DHT22;43493;53.098;6.064;2023-05-14T14:02:04;21.50;95.70
57664;DHT22;43493;53.098;6.064;2023-05-14T14:04:29;21.60;96.70
57664;DHT22;43493;53.098;6.064;2023-05-14T14:06:55;21.60;97.40
57664;DHT22;43493;53.098;6.064;2023-05-14T14:09:21;21.60;96.60
57664;DHT22;43493;53.098;6.064;2023-05-14T14:11:47;21.50;97.10
57664;DHT22;43493;53.098;6.064;2023-05-14T14:14:13;21.50;96.70
57664;DHT22;43493;53.098;6.064;2023-05-14T14:16:39;21.50;97.20
57664;DHT22;43493;53.098;6.064;2023-05-14T14:19:05;21.60;97.60
57664;DHT22;43493;53.098;6.064;2023-05-14T14:21:31;21.60;97.90
57664;DHT22;43493;53.098;6.064;2023-05-14T14:23:58;21.60;97.90
57664;DHT22;43493;53.098;6.064;2023-05-14T14:26:24;21.70;98.30
57664;DHT22;43493;53.098;6.064;2023-05-14T14:28:52;21.70;98.30
57664;DHT22;43493;53.098;6.064;2023-05-14T14:31:18;21.70;98.40
57664;DHT22;43493;53.098;6.064;2023-05-14T14:33:44;21.80;98.40
57664;DHT22;43493;53.098;6.064;2023-05-14T14:36:10;21.60;98.50
57664;DHT22;43493;53.098;6.064;2023-05-14T14:38:36;21.60;99.10
57664;DHT22;43493;53.098;6.064;2023-05-14T14:41:04;21.60;99.80
57664;DHT22;43493;53.098;6.064;2023-05-14T14:43:31;21.60;99.90
57664;DHT22;43493;53.098;6.064;2023-05-14T14:45:57;21.40;99.90
57664;DHT22;43493;53.098;6.064;2023-05-14T14:48:28;21.40;99.90
57664;DHT22;43493;53.098;6.064;2023-05-14T14:50:59;21.40;99.90
57664;DHT22;43493;53.098;6.064;2023-05-14T14:53:28;21.50;99.90
57664;DHT22;43493;53.098;6.064;2023-05-14T14:55:54;21.50;99.90
57664;DHT22;43493;53.098;6.064;2023-05-14T14:58:21;21.50;99.90
57664;DHT22;43493;53.098;6.064;2023-05-14T15:00:47;21.50;99.90
57664;DHT22;43493;53.098;6.064;2023-05-14T15:03:14;21.50;99.90
57664;DHT22;43493;53.098;6.064;2023-05-14T15:05:40;21.40;99.90
57664;DHT22;43493;53.098;6.064;2023-05-14T15:08:05;21.40;99.90
57664;DHT22;43493;53.098;6.064;2023-05-14T15:10:31;21.40;99.90
57664;DHT22;43493;53.098;6.064;2023-05-14T15:12:58;21.30;99.90
57664;DHT22;43493;53.098;6.064;2023-05-14T15:15:24;21.20;99.90
57664;DHT22;43493;53.098;6.064;2023-05-14T15:17:50;21.20;99.90
57664;DHT22;43493;53.098;6.064;2023-05-14T15:20:16;21.10;99.90
57664;DHT22;43493;53.098;6.064;2023-05-14T15:22:43;21.10;99.90
57664;DHT22;43493;53.098;6.064;2023-05-14T15:25:09;21.10;99.90
57664;DHT22;43493;53.098;6.064;2023-05-14T15:27:35;21.10;99.90
57664;DHT22;43493;53.098;6.064;2023-05-14T15:30:02;21.00;99.90
57664;DHT22;43493;53.098;6.064;2023-05-14T15:32:29;21.00;99.90
57664;DHT22;43493;53.098;6.064;2023-05-14T15:34:55;21.00;99.90
57664;DHT22;43493;53.098;6.064;2023-05-14T15:37:23;20.90;99.90
57664;DHT22;43493;53.098;6.064;2023-05-14T15:39:49;20.90;99.90